Time;durP1;ratioP1;P1;durP2;ratioP2;P2;SDS_P1;SDS_P2;PMS_P1;PMS_P2;Temp;Humidity;BMP_temperature;BMP_pressure;BME280_temperature;BME280_humidity;BME280_pressure;Samples;Min_cycle;Max_cycle;Signal;HPM_P1;HPM_P2
2022/09/16 00:01:10;;;;;;;5.20;1.50;;;12.30;99.90;;;;;;4995803;28;20244;-51
2022/09/16 00:03:39;;;;;;;4.93;1.30;;;12.30;99.90;;;;;;4996115;28;20231;-49
2022/09/16 00:06:17;;;;;;;3.10;1.03;;;12.30;99.90;;;;;;4996510;28;20248;-48
2022/09/16 00:08:45;;;;;;;3.23;0.93;;;12.30;99.90;;;;;;4995944;28;20275;-49
2022/09/16 00:11:14;;;;;;;3.53;1.00;;;12.40;99.90;;;;;;4996243;28;20264;-47
2022/09/16 00:13:42;;;;;;;4.43;1.00;;;12.20;99.90;;;;;;5004121;28;20256;-47
2022/09/16 00:16:15;;;;;;;3.60;0.90;;;12.20;99.90;;;;;;4976840;28;20697;-50
2022/09/16 00:18:43;;;;;;;1.80;1.00;;;12.20;99.90;;;;;;4993886;28;20640;-49
2022/09/16 00:21:13;;;;;;;3.30;0.90;;;12.20;99.90;;;;;;4996312;28;20228;-50
2022/09/16 00:23:41;;;;;;;3.20;1.00;;;12.10;99.90;;;;;;4995904;28;20230;-48
2022/09/16 00:26:09;;;;;;;2.20;0.73;;;12.10;99.90;;;;;;4995865;28;20638;-48
2022/09/16 00:28:37;;;;;;;3.10;1.10;;;12.20;99.90;;;;;;4991506;28;20232;-50
2022/09/16 00:31:05;;;;;;;2.63;0.90;;;12.20;99.90;;;;;;4995255;28;20724;-50
2022/09/16 00:33:33;;;;;;;1.93;1.03;;;12.20;99.90;;;;;;5002055;28;20281;-49
2022/09/16 00:36:06;;;;;;;2.67;1.30;;;12.20;99.90;;;;;;5015305;28;20231;-48
2022/09/16 00:38:36;;;;;;;3.20;1.77;;;12.20;99.90;;;;;;5014822;28;20241;-50
2022/09/16 00:41:04;;;;;;;6.43;1.53;;;12.20;99.90;;;;;;5015159;28;20236;-48
2022/09/16 00:43:50;;;;;;;4.27;1.10;;;12.20;99.90;;;;;;5003549;28;20250;-49
2022/09/16 00:46:22;;;;;;;3.20;1.20;;;12.00;99.90;;;;;;4981248;28;20228;-48
2022/09/16 00:48:51;;;;;;;4.00;1.10;;;12.00;99.90;;;;;;4994626;28;20231;-49
2022/09/16 00:51:19;;;;;;;5.73;1.20;;;12.00;99.90;;;;;;4995382;28;20244;-47
2022/09/16 00:53:55;;;;;;;4.93;1.30;;;12.00;99.90;;;;;;4995458;28;20240;-47
2022/09/16 00:56:26;;;;;;;3.37;1.20;;;11.90;99.90;;;;;;4996962;28;20279;-48
2022/09/16 00:59:02;;;;;;;2.13;1.00;;;11.90;99.90;;;;;;4997444;28;20238;-50
2022/09/16 01:01:30;;;;;;;4.63;1.57;;;12.00;99.90;;;;;;4994502;28;20250;-48
2022/09/16 01:04:03;;;;;;;4.07;1.40;;;12.10;99.90;;;;;;4995804;28;20232;-50
2022/09/16 01:06:32;;;;;;;8.30;1.70;;;12.10;99.90;;;;;;4995259;28;20240;-49
2022/09/16 01:09:02;;;;;;;3.73;1.40;;;12.10;99.90;;;;;;4995700;28;20715;-47
2022/09/16 01:11:30;;;;;;;4.97;1.13;;;12.20;99.90;;;;;;4995137;28;20231;-50
2022/09/16 01:14:51;;;;;;;3.57;1.70;;;12.10;99.90;;;;;;5005276;28;20699;-50
2022/09/16 01:16:57;;;;;;;4.60;1.50;;;12.20;99.90;;;;;;5013657;28;20223;-48
2022/09/16 01:19:45;;;;;;;3.87;1.70;;;12.20;99.90;;;;;;4997305;28;20716;-49
2022/09/16 01:22:27;;;;;;;3.17;1.20;;;12.10;99.90;;;;;;4994823;28;20221;-50
2022/09/16 01:25:04;;;;;;;4.30;1.17;;;12.10;99.90;;;;;;4994649;28;20239;-48
2022/09/16 01:28:17;;;;;;;5.07;1.30;;;12.10;99.90;;;;;;4998909;28;20249;-50
2022/09/16 01:31:03;;;;;;;3.70;1.27;;;12.10;99.90;;;;;;4964459;28;20259;-47
2022/09/16 01:33:40;;;;;;;2.67;1.20;;;12.00;99.90;;;;;;5002767;28;20282;-50
2022/09/16 01:36:25;;;;;;;4.97;1.20;;;12.00;99.90;;;;;;5013711;28;20702;-49
2022/09/16 01:39:06;;;;;;;2.80;1.13;;;12.00;99.90;;;;;;5014099;28;20239;-48
2022/09/16 01:41:45;;;;;;;3.87;1.00;;;12.00;99.90;;;;;;5010425;28;20255;-52
2022/09/16 01:44:25;;;;;;;2.93;1.03;;;12.00;99.90;;;;;;4995061;28;20228;-48
2022/09/16 01:47:02;;;;;;;4.37;1.00;;;12.00;99.90;;;;;;4995179;28;20251;-48
2022/09/16 01:49:40;;;;;;;3.67;1.00;;;11.90;99.90;;;;;;4994560;28;20589;-48
2022/09/16 01:52:20;;;;;;;3.00;1.00;;;11.90;99.90;;;;;;4994324;28;20219;-48
2022/09/16 01:54:54;;;;;;;5.53;1.33;;;11.80;99.90;;;;;;4994683;28;20641;-48
2022/09/16 01:57:28;;;;;;;2.50;0.90;;;11.80;99.90;;;;;;4998864;28;20228;-49
2022/09/16 02:00:00;;;;;;;4.03;1.00;;;11.90;99.90;;;;;;4994422;28;20239;-49
2022/09/16 02:02:41;;;;;;;3.40;1.20;;;11.90;99.90;;;;;;4993521;28;20238;-51
2022/09/16 02:05:12;;;;;;;3.60;1.00;;;12.00;99.90;;;;;;4994455;28;20270;-48
2022/09/16 02:07:45;;;;;;;5.53;1.30;;;12.00;99.90;;;;;;4994325;28;20240;-48
2022/09/16 02:10:18;;;;;;;4.20;1.07;;;12.00;99.90;;;;;;4994313;28;20719;-48
2022/09/16 02:12:49;;;;;;;3.90;1.13;;;12.00;99.90;;;;;;5002462;28;20231;-48
2022/09/16 02:15:21;;;;;;;4.27;1.50;;;12.00;99.90;;;;;;5006856;28;20231;-49
2022/09/16 02:17:56;;;;;;;5.90;1.30;;;11.90;99.90;;;;;;5004320;28;20229;-49
2022/09/16 02:20:28;;;;;;;2.63;1.20;;;11.90;99.90;;;;;;4993809;28;20247;-49
2022/09/16 02:23:00;;;;;;;4.33;1.33;;;11.90;99.90;;;;;;4994069;28;20632;-50
2022/09/16 02:25:31;;;;;;;4.53;1.33;;;11.90;99.90;;;;;;4993900;28;20239;-50
2022/09/16 02:28:05;;;;;;;4.27;1.10;;;11.90;99.90;;;;;;4998004;28;20252;-48
2022/09/16 02:30:35;;;;;;;4.57;1.10;;;11.90;99.90;;;;;;4993878;28;20236;-50
2022/09/16 02:33:08;;;;;;;3.87;1.53;;;11.80;99.90;;;;;;4994093;28;20237;-48
2022/09/16 02:35:38;;;;;;;4.03;1.10;;;11.80;99.90;;;;;;4994051;28;20244;-48
2022/09/16 02:38:12;;;;;;;5.77;1.23;;;11.80;99.90;;;;;;4993690;28;20295;-48
2022/09/16 02:40:47;;;;;;;5.37;1.50;;;11.80;99.90;;;;;;4994023;28;20235;-49
2022/09/16 02:43:16;;;;;;;4.67;1.20;;;11.70;99.90;;;;;;5001836;28;20687;-49
2022/09/16 02:45:52;;;;;;;4.67;1.07;;;11.70;99.90;;;;;;5009881;28;20241;-50
2022/09/16 02:48:31;;;;;;;4.43;1.47;;;11.70;99.90;;;;;;5003070;28;20680;-49
2022/09/16 02:51:09;;;;;;;4.43;1.30;;;11.80;99.90;;;;;;4993882;28;20802;-48
2022/09/16 02:53:46;;;;;;;2.70;0.93;;;11.80;99.90;;;;;;4993880;28;20236;-49
2022/09/16 02:56:22;;;;;;;5.30;1.50;;;11.80;99.90;;;;;;4994578;28;20236;-49
2022/09/16 02:58:50;;;;;;;5.20;1.27;;;11.80;99.90;;;;;;4996104;28;20235;-48
2022/09/16 03:01:20;;;;;;;3.43;1.37;;;11.80;99.90;;;;;;5012889;28;20317;-49
2022/09/16 03:03:49;;;;;;;4.50;1.40;;;11.80;99.90;;;;;;5013801;28;20684;-48
2022/09/16 03:06:23;;;;;;;2.80;1.13;;;11.70;99.90;;;;;;5013603;28;20229;-48
2022/09/16 03:08:54;;;;;;;3.33;1.33;;;11.70;99.90;;;;;;5013286;28;20211;-48
2022/09/16 03:11:53;;;;;;;3.97;1.40;;;11.70;99.90;;;;;;5011580;28;20222;-48
2022/09/16 03:14:48;;;;;;;3.70;1.27;;;11.70;99.90;;;;;;4985201;28;20244;-48
2022/09/16 03:17:30;;;;;;;3.63;1.10;;;11.70;99.90;;;;;;4994679;28;20238;-49
2022/09/16 03:20:10;;;;;;;2.67;1.20;;;11.70;99.90;;;;;;4993488;28;20774;-48
2022/09/16 03:22:50;;;;;;;3.10;1.23;;;11.70;99.90;;;;;;4993731;28;20723;-48
2022/09/16 03:25:34;;;;;;;4.33;1.47;;;11.60;99.90;;;;;;4996556;28;20240;-48
2022/09/16 03:28:09;;;;;;;2.37;1.20;;;11.60;99.90;;;;;;4997488;28;20303;-46
2022/09/16 03:30:43;;;;;;;2.37;1.13;;;11.60;99.90;;;;;;4993970;28;20249;-47
2022/09/16 03:33:21;;;;;;;2.20;1.00;;;11.60;99.90;;;;;;4997015;28;20215;-48
2022/09/16 03:35:56;;;;;;;5.13;1.50;;;11.70;99.90;;;;;;4996923;28;20231;-48
2022/09/16 03:38:24;;;;;;;2.23;1.10;;;11.60;99.90;;;;;;4997386;28;20244;-48
2022/09/16 03:40:53;;;;;;;2.73;1.30;;;11.70;99.90;;;;;;4997247;28;20248;-48
2022/09/16 03:43:21;;;;;;;3.80;1.20;;;11.60;99.90;;;;;;5005322;28;20219;-49
2022/09/16 03:45:51;;;;;;;4.83;1.50;;;11.60;99.90;;;;;;5013683;28;20243;-48
2022/09/16 03:48:19;;;;;;;4.13;1.30;;;11.60;99.90;;;;;;5003868;28;20255;-50
2022/09/16 03:50:47;;;;;;;5.13;2.00;;;11.60;99.90;;;;;;4996861;28;20699;-51
2022/09/16 03:53:16;;;;;;;4.13;1.80;;;11.60;99.90;;;;;;5007704;28;20228;-48
2022/09/16 03:55:45;;;;;;;4.30;1.60;;;11.60;99.90;;;;;;5007935;28;20231;-51
2022/09/16 03:58:13;;;;;;;2.87;1.70;;;11.70;99.90;;;;;;5003613;28;20229;-50
2022/09/16 04:00:41;;;;;;;5.53;1.67;;;11.70;99.90;;;;;;5010733;28;20711;-51
2022/09/16 04:03:09;;;;;;;3.90;1.53;;;11.70;99.90;;;;;;4999414;28;20236;-52
2022/09/16 04:05:37;;;;;;;4.80;1.70;;;11.70;99.90;;;;;;4996744;28;20244;-52
2022/09/16 04:08:05;;;;;;;4.37;1.53;;;11.70;99.90;;;;;;4996831;28;20233;-51
2022/09/16 04:10:34;;;;;;;2.93;1.30;;;11.70;99.90;;;;;;4996611;28;20217;-52
2022/09/16 04:13:03;;;;;;;7.77;2.10;;;11.60;99.90;;;;;;5005209;28;20233;-52
2022/09/16 04:15:31;;;;;;;5.70;2.00;;;11.60;99.90;;;;;;5011384;28;20232;-51
2022/09/16 04:18:02;;;;;;;4.10;2.07;;;11.50;99.90;;;;;;5016162;28;20232;-51
2022/09/16 04:20:30;;;;;;;5.23;1.70;;;11.50;99.90;;;;;;5015763;28;20243;-48
2022/09/16 04:22:58;;;;;;;7.20;1.77;;;11.50;99.90;;;;;;5005465;28;20236;-48
2022/09/16 04:25:26;;;;;;;5.37;2.20;;;11.40;99.90;;;;;;4995993;28;20268;-49
2022/09/16 04:27:56;;;;;;;3.37;1.40;;;11.40;99.90;;;;;;4999753;28;20302;-49
2022/09/16 04:30:24;;;;;;;4.83;1.60;;;11.30;99.90;;;;;;4996014;28;20233;-51
2022/09/16 04:32:53;;;;;;;4.37;1.73;;;11.30;99.90;;;;;;4995839;28;20251;-48
2022/09/16 04:35:22;;;;;;;2.97;1.37;;;11.30;99.90;;;;;;4995985;28;20227;-49
2022/09/16 04:37:50;;;;;;;4.10;1.30;;;11.30;99.90;;;;;;4996039;28;20238;-48
2022/09/16 04:40:18;;;;;;;3.87;1.70;;;11.30;99.90;;;;;;4995654;28;20251;-48
2022/09/16 04:42:49;;;;;;;4.33;1.80;;;11.30;99.90;;;;;;5002531;28;20225;-50
2022/09/16 04:45:18;;;;;;;4.57;2.07;;;11.20;99.90;;;;;;5007308;28;20232;-48
2022/09/16 04:47:46;;;;;;;3.30;1.93;;;11.30;99.90;;;;;;5015166;28;20227;-48
2022/09/16 04:50:15;;;;;;;5.67;1.77;;;11.30;99.90;;;;;;5015797;28;20630;-49
2022/09/16 04:52:43;;;;;;;6.57;1.90;;;11.30;99.90;;;;;;5006839;28;20237;-51
2022/09/16 04:55:11;;;;;;;4.07;1.40;;;11.30;99.90;;;;;;4987952;28;20584;-49
2022/09/16 04:57:39;;;;;;;6.00;1.50;;;11.40;99.90;;;;;;4999931;28;20236;-49
2022/09/16 05:00:08;;;;;;;7.57;1.47;;;11.40;99.90;;;;;;4995874;28;20244;-48
2022/09/16 05:02:38;;;;;;;4.80;1.43;;;11.40;99.90;;;;;;4995219;28;20243;-49
2022/09/16 05:05:07;;;;;;;5.33;1.43;;;11.50;99.90;;;;;;4995231;28;20741;-48
2022/09/16 05:07:35;;;;;;;4.83;1.50;;;11.40;99.90;;;;;;4995432;28;20228;-47
2022/09/16 05:10:03;;;;;;;3.40;1.40;;;11.30;99.90;;;;;;4995104;28;20221;-50
2022/09/16 05:12:31;;;;;;;2.57;1.10;;;11.30;99.90;;;;;;5001129;28;20218;-47
2022/09/16 05:14:59;;;;;;;3.90;1.10;;;11.30;99.90;;;;;;5005909;28;20227;-49
2022/09/16 05:17:30;;;;;;;5.13;1.20;;;11.30;99.90;;;;;;5014420;28;20234;-47
2022/09/16 05:20:19;;;;;;;4.37;1.37;;;11.20;99.90;;;;;;5005795;28;20244;-48
2022/09/16 05:22:49;;;;;;;3.60;1.17;;;11.20;99.90;;;;;;4998154;28;20759;-48
2022/09/16 05:25:18;;;;;;;5.53;1.30;;;11.20;99.90;;;;;;4999209;28;20231;-48
2022/09/16 05:27:46;;;;;;;7.00;1.30;;;11.20;99.90;;;;;;4998368;28;20724;-49
2022/09/16 05:30:16;;;;;;;5.10;1.30;;;11.10;99.90;;;;;;5006530;28;20630;-48
2022/09/16 05:32:44;;;;;;;6.67;1.63;;;11.20;99.90;;;;;;4995792;28;20228;-48
2022/09/16 05:35:12;;;;;;;8.73;1.20;;;11.20;99.90;;;;;;4996086;28;20236;-48
2022/09/16 05:37:41;;;;;;;6.73;1.40;;;11.20;99.90;;;;;;4994994;28;20282;-48
2022/09/16 05:40:09;;;;;;;4.17;1.37;;;11.20;99.90;;;;;;4997507;28;20243;-47
2022/09/16 05:42:37;;;;;;;2.87;1.10;;;11.30;99.90;;;;;;5001795;28;20579;-47
2022/09/16 05:45:06;;;;;;;5.63;1.70;;;11.30;99.90;;;;;;5006138;28;20242;-48
2022/09/16 05:47:34;;;;;;;3.73;1.20;;;11.40;99.90;;;;;;5014176;28;20237;-50
2022/09/16 05:50:03;;;;;;;5.23;1.30;;;11.40;99.90;;;;;;5014091;28;20224;-47
2022/09/16 05:52:31;;;;;;;3.77;0.90;;;11.50;99.90;;;;;;5007474;28;20229;-49
2022/09/16 05:55:00;;;;;;;4.73;1.30;;;11.60;99.90;;;;;;4994163;28;20231;-48
2022/09/16 05:57:28;;;;;;;7.33;1.60;;;11.60;99.90;;;;;;4998614;28;20228;-48
2022/09/16 06:00:00;;;;;;;4.70;1.23;;;11.60;99.90;;;;;;4993975;28;20233;-48
2022/09/16 06:02:37;;;;;;;3.83;1.20;;;11.60;99.90;;;;;;4974383;28;20239;-49
2022/09/16 06:05:05;;;;;;;6.30;1.17;;;11.50;99.90;;;;;;4974789;28;20236;-48
2022/09/16 06:07:33;;;;;;;6.73;1.10;;;11.50;99.90;;;;;;4997825;28;20230;-48
2022/09/16 06:10:03;;;;;;;6.77;1.50;;;11.50;99.90;;;;;;5013335;28;20240;-48
2022/09/16 06:12:30;;;;;;;6.57;1.40;;;11.40;99.90;;;;;;5008397;28;20224;-48
2022/09/16 06:14:59;;;;;;;6.13;1.37;;;11.50;99.90;;;;;;5005493;28;20231;-48
2022/09/16 06:17:27;;;;;;;4.40;1.10;;;11.50;99.90;;;;;;5000844;28;20289;-49
2022/09/16 06:19:55;;;;;;;5.13;1.20;;;11.50;99.90;;;;;;4993813;28;20275;-50
2022/09/16 06:22:23;;;;;;;3.83;1.07;;;11.60;99.90;;;;;;4994054;28;20238;-48
2022/09/16 06:24:51;;;;;;;3.93;0.97;;;11.60;99.90;;;;;;4994212;28;20239;-47
2022/09/16 06:27:21;;;;;;;6.03;1.23;;;11.60;99.90;;;;;;4999349;28;20244;-47
2022/09/16 06:29:49;;;;;;;4.33;1.20;;;11.70;99.90;;;;;;4994035;28;20241;-48
2022/09/16 06:32:17;;;;;;;4.67;0.93;;;11.80;99.90;;;;;;4998682;28;20258;-49
2022/09/16 06:34:45;;;;;;;4.87;1.00;;;11.80;99.90;;;;;;5013305;28;20271;-48
2022/09/16 06:37:13;;;;;;;5.10;1.23;;;11.90;99.90;;;;;;5013414;28;20295;-48
2022/09/16 06:39:41;;;;;;;4.37;0.97;;;12.00;99.90;;;;;;5013306;28;20624;-48
2022/09/16 06:42:09;;;;;;;3.93;1.13;;;12.20;99.90;;;;;;5008149;28;20645;-49
2022/09/16 06:44:42;;;;;;;7.03;1.27;;;12.30;99.90;;;;;;5003527;28;20231;-49
2022/09/16 06:47:10;;;;;;;7.80;1.10;;;12.50;99.90;;;;;;5013465;28;20234;-47
2022/09/16 06:49:38;;;;;;;8.37;1.13;;;12.60;99.90;;;;;;5011695;28;20220;-49
2022/09/16 06:52:08;;;;;;;4.93;1.13;;;12.80;99.90;;;;;;5006391;28;20224;-48
2022/09/16 06:54:36;;;;;;;2.97;0.97;;;12.90;99.90;;;;;;4993436;28;20271;-47
2022/09/16 06:57:04;;;;;;;7.57;1.17;;;13.10;99.90;;;;;;4998818;28;20283;-49
2022/09/16 06:59:39;;;;;;;4.70;0.97;;;13.30;99.90;;;;;;4993397;28;20236;-47
2022/09/16 07:02:09;;;;;;;7.20;1.40;;;13.50;99.90;;;;;;4993273;28;20712;-49
2022/09/16 07:04:38;;;;;;;7.43;1.30;;;13.60;99.90;;;;;;4993447;28;20237;-48
2022/09/16 07:07:06;;;;;;;5.27;1.30;;;13.80;99.90;;;;;;4996576;28;20228;-49
2022/09/16 07:09:37;;;;;;;9.03;1.50;;;13.90;99.90;;;;;;4997478;28;20247;-50
2022/09/16 07:12:06;;;;;;;6.90;1.70;;;14.10;99.90;;;;;;5000090;28;20225;-47
2022/09/16 07:14:34;;;;;;;9.63;2.40;;;14.30;99.90;;;;;;5008546;28;20299;-48
2022/09/16 07:17:03;;;;;;;5.33;1.67;;;14.40;99.90;;;;;;5016725;28;20252;-50
2022/09/16 07:19:32;;;;;;;6.37;1.33;;;14.50;99.90;;;;;;5016639;28;20227;-48
2022/09/16 07:22:00;;;;;;;4.30;1.07;;;14.60;99.90;;;;;;5016628;28;20228;-50
2022/09/16 07:24:28;;;;;;;5.93;1.50;;;14.80;99.90;;;;;;5016357;28;20288;-48
2022/09/16 07:26:56;;;;;;;5.20;1.30;;;14.90;99.90;;;;;;5009764;28;20242;-48
2022/09/16 07:29:24;;;;;;;5.80;1.10;;;15.10;99.90;;;;;;4996684;28;20237;-47
2022/09/16 07:31:53;;;;;;;8.40;1.47;;;15.20;99.90;;;;;;4996284;28;20233;-49
2022/09/16 07:34:21;;;;;;;5.50;1.50;;;15.30;99.90;;;;;;4997069;28;20234;-48
2022/09/16 07:36:50;;;;;;;5.07;1.20;;;15.60;99.90;;;;;;4999134;28;20237;-49
2022/09/16 07:39:19;;;;;;;6.27;1.30;;;15.70;99.90;;;;;;4996582;28;20241;-47
2022/09/16 07:41:48;;;;;;;6.73;1.30;;;15.30;99.90;;;;;;4996787;28;20245;-49
2022/09/16 07:44:18;;;;;;;7.23;1.03;;;14.70;99.90;;;;;;5008121;28;20221;-50
2022/09/16 07:46:46;;;;;;;3.50;1.30;;;14.40;99.90;;;;;;5016560;28;20229;-47
2022/09/16 07:49:15;;;;;;;4.60;1.10;;;14.10;99.90;;;;;;5016477;28;20240;-48
2022/09/16 07:51:44;;;;;;;4.70;1.20;;;13.90;99.90;;;;;;5016327;28;20236;-48
2022/09/16 07:54:16;;;;;;;6.30;1.17;;;13.60;99.90;;;;;;5016174;28;20251;-51
2022/09/16 07:56:45;;;;;;;4.73;1.17;;;13.40;99.90;;;;;;5010975;28;20225;-47
2022/09/16 07:59:16;;;;;;;6.47;1.30;;;13.40;99.90;;;;;;4996499;28;20241;-51
2022/09/16 08:01:47;;;;;;;4.27;1.33;;;13.70;99.90;;;;;;4995698;28;21698;-50
2022/09/16 08:04:15;;;;;;;5.57;1.40;;;13.90;99.90;;;;;;4997756;28;20276;-49
2022/09/16 08:06:43;;;;;;;5.83;1.53;;;14.20;99.90;;;;;;4996261;28;20273;-49
2022/09/16 08:09:13;;;;;;;5.40;1.00;;;14.30;99.90;;;;;;4996429;28;20233;-50
2022/09/16 08:12:04;;;;;;;5.00;1.33;;;14.50;99.90;;;;;;4998642;28;20685;-49
2022/09/16 08:14:32;;;;;;;7.60;2.03;;;14.80;99.90;;;;;;5007047;28;20259;-48
2022/09/16 08:17:02;;;;;;;6.37;1.20;;;14.90;99.90;;;;;;5015596;28;20698;-48
2022/09/16 08:19:30;;;;;;;5.30;1.17;;;15.10;99.90;;;;;;5015410;28;20244;-48
2022/09/16 08:21:58;;;;;;;5.90;1.27;;;15.30;99.90;;;;;;5015620;28;20688;-48
2022/09/16 08:24:27;;;;;;;5.70;1.10;;;15.40;99.90;;;;;;5015472;28;20623;-50
2022/09/16 08:26:55;;;;;;;7.10;1.87;;;15.70;99.90;;;;;;5008806;28;20252;-51
2022/09/16 08:29:28;;;;;;;4.73;1.10;;;16.00;99.90;;;;;;4996238;28;20225;-49
2022/09/16 08:31:56;;;;;;;5.07;1.10;;;16.30;99.90;;;;;;4995210;28;20233;-48
2022/09/16 08:34:24;;;;;;;9.23;1.57;;;16.50;99.90;;;;;;4996900;28;20238;-48
2022/09/16 08:36:53;;;;;;;4.60;1.23;;;16.80;99.90;;;;;;4995815;28;20229;-50
2022/09/16 08:39:21;;;;;;;6.87;1.50;;;16.80;99.90;;;;;;4999654;28;20230;-50
2022/09/16 08:42:07;;;;;;;3.83;1.17;;;17.00;99.90;;;;;;4997396;28;20245;-48
2022/09/16 08:44:43;;;;;;;4.77;1.30;;;17.20;99.90;;;;;;5004908;28;20356;-50
2022/09/16 08:47:25;;;;;;;5.00;1.10;;;17.50;99.90;;;;;;5005487;28;20233;-48
2022/09/16 08:49:53;;;;;;;6.73;1.30;;;17.90;99.90;;;;;;5005795;28;20236;-48
2022/09/16 08:52:30;;;;;;;6.27;1.27;;;18.00;99.90;;;;;;5006291;28;20547;-50
2022/09/16 08:55:02;;;;;;;7.10;1.40;;;17.90;99.90;;;;;;5000882;28;20226;-50
2022/09/16 08:57:38;;;;;;;6.83;1.40;;;17.90;99.90;;;;;;5003695;28;20233;-48
2022/09/16 09:00:13;;;;;;;6.80;1.30;;;17.70;99.90;;;;;;5004496;28;20225;-49
2022/09/16 09:02:47;;;;;;;6.20;1.30;;;17.10;99.90;;;;;;5002170;28;20233;-48
2022/09/16 09:05:18;;;;;;;7.43;1.30;;;16.40;99.90;;;;;;5003957;28;20317;-49
2022/09/16 09:07:54;;;;;;;4.80;1.13;;;15.70;99.90;;;;;;5004591;28;20698;-51
2022/09/16 09:10:28;;;;;;;5.60;1.10;;;15.10;99.90;;;;;;5002860;28;20225;-48
2022/09/16 09:13:07;;;;;;;5.27;1.17;;;14.90;99.90;;;;;;5003960;28;20685;-49
2022/09/16 09:15:42;;;;;;;6.23;1.17;;;14.90;99.90;;;;;;5006481;28;20768;-50
2022/09/16 09:18:20;;;;;;;6.73;1.30;;;14.60;99.90;;;;;;5005274;28;20230;-49
2022/09/16 09:20:56;;;;;;;4.57;1.33;;;14.60;99.90;;;;;;5002465;28;20226;-49
2022/09/16 09:23:44;;;;;;;3.97;1.17;;;14.60;99.90;;;;;;5002760;28;20280;-49
2022/09/16 09:26:19;;;;;;;4.50;1.03;;;14.60;99.90;;;;;;5004652;28;20233;-47
2022/09/16 09:29:03;;;;;;;5.70;1.17;;;14.60;99.90;;;;;;5002400;28;20236;-48
2022/09/16 09:31:41;;;;;;;5.53;1.17;;;14.50;99.90;;;;;;5004066;28;20237;-47
2022/09/16 09:34:19;;;;;;;4.97;1.17;;;14.70;99.90;;;;;;5003818;28;20226;-50
2022/09/16 09:36:59;;;;;;;7.53;1.50;;;15.00;99.90;;;;;;5003114;28;20230;-50
2022/09/16 09:39:40;;;;;;;6.00;1.03;;;15.30;99.90;;;;;;5003936;28;20228;-49
2022/09/16 09:42:16;;;;;;;4.50;1.20;;;15.60;99.90;;;;;;5002811;28;20221;-50
2022/09/16 09:44:57;;;;;;;4.17;1.07;;;16.00;99.90;;;;;;5005068;28;20236;-49
2022/09/16 09:47:33;;;;;;;5.70;1.20;;;16.40;99.90;;;;;;5000569;28;20235;-48
2022/09/16 09:50:12;;;;;;;4.87;1.47;;;16.90;99.90;;;;;;5006291;28;20260;-50
2022/09/16 09:52:46;;;;;;;4.20;0.90;;;17.00;99.90;;;;;;5001138;28;20273;-49
2022/09/16 09:55:17;;;;;;;4.20;1.27;;;16.90;99.90;;;;;;5003283;28;20275;-48
2022/09/16 09:57:59;;;;;;;5.83;1.50;;;16.70;99.90;;;;;;5002499;28;20249;-48
2022/09/16 10:00:29;;;;;;;5.07;1.10;;;16.30;99.90;;;;;;5000547;28;20228;-49
2022/09/16 10:03:04;;;;;;;5.03;1.00;;;16.00;99.90;;;;;;4999714;28;20257;-48
2022/09/16 10:05:33;;;;;;;5.30;1.00;;;15.80;99.90;;;;;;4994558;28;20230;-48
2022/09/16 10:08:07;;;;;;;2.87;0.90;;;15.70;99.90;;;;;;4994438;28;20226;-50
2022/09/16 10:10:47;;;;;;;6.57;1.40;;;16.40;99.90;;;;;;4996320;28;20296;-49
2022/09/16 10:13:16;;;;;;;4.47;0.97;;;17.00;99.90;;;;;;5001142;28;20232;-48
2022/09/16 10:15:47;;;;;;;5.87;1.40;;;17.50;99.90;;;;;;4998476;28;20292;-49
2022/09/16 10:18:28;;;;;;;4.60;1.27;;;17.90;99.90;;;;;;4996200;28;20712;-49
2022/09/16 10:21:02;;;;;;;7.17;1.17;;;18.30;99.90;;;;;;5004546;28;20225;-50
2022/09/16 10:23:30;;;;;;;5.50;1.30;;;18.60;99.90;;;;;;4994996;28;20222;-51
2022/09/16 10:26:07;;;;;;;4.70;1.30;;;18.80;99.90;;;;;;4995290;28;20221;-50
2022/09/16 10:28:35;;;;;;;4.17;1.33;;;19.20;99.90;;;;;;4993779;28;20225;-50
2022/09/16 10:31:07;;;;;;;3.83;1.30;;;19.50;99.90;;;;;;4993282;28;20282;-51
2022/09/16 10:33:40;;;;;;;5.97;1.20;;;19.50;99.90;;;;;;5003088;28;20648;-52
2022/09/16 10:36:11;;;;;;;4.67;1.13;;;19.50;99.90;;;;;;5003978;28;20227;-51
2022/09/16 10:38:40;;;;;;;3.63;1.00;;;19.60;99.90;;;;;;4993681;28;20650;-50
2022/09/16 10:41:14;;;;;;;6.53;1.23;;;20.00;99.90;;;;;;4998670;28;20232;-52
2022/09/16 10:43:49;;;;;;;4.60;1.17;;;20.20;99.90;;;;;;5010734;28;20607;-49
2022/09/16 10:46:19;;;;;;;5.87;1.20;;;19.80;99.90;;;;;;4978293;28;20243;-49
2022/09/16 10:48:50;;;;;;;7.43;1.30;;;17.80;99.90;;;;;;4978673;28;20640;-51
2022/09/16 10:51:24;;;;;;;3.67;0.90;;;16.70;99.90;;;;;;4996262;28;20241;-49
2022/09/16 10:53:54;;;;;;;3.37;0.87;;;16.20;99.90;;;;;;4997551;28;20236;-52
2022/09/16 10:56:28;;;;;;;6.80;1.20;;;16.00;99.90;;;;;;4997389;28;20237;-49
2022/09/16 10:59:04;;;;;;;4.60;0.90;;;16.10;99.90;;;;;;4997759;28;20729;-50
2022/09/16 11:01:44;;;;;;;3.70;0.87;;;16.30;99.90;;;;;;4997140;28;20246;-50
2022/09/16 11:04:43;;;;;;;4.93;0.87;;;16.80;99.90;;;;;;4997737;28;20241;-49
2022/09/16 11:07:23;;;;;;;5.90;1.10;;;17.40;99.90;;;;;;4997502;28;20619;-50
2022/09/16 11:10:02;;;;;;;6.03;1.23;;;17.60;99.90;;;;;;4997566;28;20230;-50
2022/09/16 11:13:15;;;;;;;6.17;1.30;;;17.50;99.90;;;;;;5002551;28;20221;-49
2022/09/16 11:15:59;;;;;;;8.07;1.50;;;17.20;99.90;;;;;;4969399;28;20241;-50
2022/09/16 11:18:42;;;;;;;5.73;1.33;;;16.70;99.90;;;;;;4992756;28;20313;-49
2022/09/16 11:21:25;;;;;;;4.40;1.00;;;16.60;99.90;;;;;;4998632;28;20268;-51
2022/09/16 11:24:09;;;;;;;3.90;1.10;;;17.00;99.90;;;;;;4997085;28;20237;-50
2022/09/16 11:26:44;;;;;;;3.70;1.07;;;17.30;99.90;;;;;;5001200;28;20292;-49
2022/09/16 11:29:39;;;;;;;5.97;1.23;;;17.70;99.90;;;;;;5006878;28;20468;-49
2022/09/16 11:32:16;;;;;;;5.03;1.40;;;17.80;99.90;;;;;;4999696;28;20232;-48
2022/09/16 11:34:58;;;;;;;6.13;1.30;;;18.00;99.90;;;;;;5009320;28;20222;-51
2022/09/16 11:37:31;;;;;;;3.73;1.33;;;18.20;99.90;;;;;;5005953;28;20230;-50
2022/09/16 11:40:15;;;;;;;6.03;1.20;;;18.10;99.90;;;;;;5014957;28;20268;-49
2022/09/16 11:42:48;;;;;;;8.10;1.80;;;18.60;99.90;;;;;;5004567;28;20239;-48
2022/09/16 11:45:29;;;;;;;8.17;1.80;;;18.70;99.90;;;;;;4998766;28;20235;-49
2022/09/16 11:48:21;;;;;;;5.27;1.50;;;18.90;99.90;;;;;;5008634;28;20339;-49
2022/09/16 11:50:59;;;;;;;6.00;1.47;;;19.00;99.90;;;;;;4984577;28;20223;-51
2022/09/16 11:53:57;;;;;;;5.17;2.07;;;18.80;99.90;;;;;;5005741;28;20269;-48
2022/09/16 11:56:36;;;;;;;8.23;1.50;;;18.70;99.90;;;;;;5005063;28;20234;-52
2022/09/16 11:59:13;;;;;;;8.57;1.80;;;18.50;99.90;;;;;;5007581;28;20633;-51
2022/09/16 12:01:44;;;;;;;6.30;1.40;;;18.70;99.90;;;;;;5002102;28;20258;-50
2022/09/16 12:04:20;;;;;;;6.73;1.60;;;19.00;99.90;;;;;;5004945;28;20232;-51
2022/09/16 12:06:56;;;;;;;5.90;1.80;;;19.30;99.90;;;;;;5006874;28;20232;-49
2022/09/16 12:09:31;;;;;;;9.13;1.60;;;19.20;99.90;;;;;;5010507;28;20242;-50
2022/09/16 12:12:10;;;;;;;6.30;1.17;;;19.00;99.90;;;;;;5010685;28;20220;-50
2022/09/16 12:14:42;;;;;;;6.37;1.30;;;18.80;99.90;;;;;;5007728;28;20330;-51
2022/09/16 12:17:16;;;;;;;5.60;1.43;;;18.90;99.90;;;;;;5003431;28;20251;-50
2022/09/16 12:19:49;;;;;;;6.73;1.03;;;18.60;99.90;;;;;;4996014;28;20247;-49
2022/09/16 12:22:22;;;;;;;5.93;1.00;;;18.60;99.90;;;;;;5001716;28;20233;-49
2022/09/16 12:24:57;;;;;;;5.70;1.10;;;18.70;99.90;;;;;;5014960;28;20687;-50
2022/09/16 12:27:37;;;;;;;6.83;1.30;;;18.50;99.90;;;;;;5012203;28;20254;-48
2022/09/16 12:30:12;;;;;;;3.37;1.10;;;18.20;99.90;;;;;;5004721;28;20239;-50
2022/09/16 12:32:50;;;;;;;6.57;1.27;;;17.70;99.90;;;;;;5000805;28;20231;-49
2022/09/16 12:35:24;;;;;;;7.37;1.23;;;17.40;99.90;;;;;;5008591;28;20237;-48
2022/09/16 12:37:56;;;;;;;4.87;1.20;;;17.50;99.90;;;;;;5010436;28;20236;-49
2022/09/16 12:40:27;;;;;;;4.83;1.17;;;17.50;99.90;;;;;;5010415;28;20682;-51
2022/09/16 12:43:20;;;;;;;6.07;1.23;;;17.50;99.90;;;;;;5009551;28;20230;-47
2022/09/16 12:46:27;;;;;;;6.03;1.40;;;17.40;99.90;;;;;;5011799;28;20238;-50
2022/09/16 12:49:21;;;;;;;6.53;1.53;;;17.40;99.90;;;;;;5007799;28;20221;-49
2022/09/16 12:52:12;;;;;;;6.80;1.50;;;17.20;99.90;;;;;;4997288;28;20244;-48
2022/09/16 12:55:22;;;;;;;8.37;1.40;;;17.30;99.90;;;;;;5004162;28;20695;-47
2022/09/16 12:58:07;;;;;;;5.53;1.43;;;17.30;99.90;;;;;;5003614;28;20242;-50
2022/09/16 13:00:41;;;;;;;6.90;1.50;;;17.00;99.90;;;;;;4995954;28;20241;-48
2022/09/16 13:03:15;;;;;;;7.73;1.70;;;16.60;99.90;;;;;;4997950;28;20226;-48
2022/09/16 13:05:46;;;;;;;6.10;1.43;;;16.20;99.90;;;;;;5006358;28;20230;-49
2022/09/16 13:08:22;;;;;;;6.90;1.73;;;15.60;99.90;;;;;;4998576;28;20230;-49
2022/09/16 13:10:59;;;;;;;8.60;1.80;;;15.20;99.90;;;;;;4994312;28;20644;-49
2022/09/16 13:13:49;;;;;;;7.23;1.57;;;15.20;99.90;;;;;;5008061;28;20222;-48
2022/09/16 13:16:32;;;;;;;6.20;1.30;;;15.20;99.90;;;;;;5010844;28;20681;-49
2022/09/16 13:19:35;;;;;;;8.00;1.53;;;15.00;99.90;;;;;;5014537;28;20237;-49
2022/09/16 13:22:15;;;;;;;6.53;1.43;;;14.80;99.90;;;;;;5007094;28;20237;-48